Temp: 4.1°C   Baro: 1034.2mb
  Wind: 0.0mph   Dir: SSW (196°)
  Rain: 0.0mm (0.0mm/hr)
  Solar: 0W/m2  Hum: 85%

Historic data

Bath Spa Weather Station Historical Data
Daily Summary for November 26, 2021 Units:  English    Metric   Both
Daily Weekly Monthly Yearly Custom
  High: Low: Average:
Temperature: 48.8 °F 37.8 °F 42.5 °F
Dew Point: 45.4 °F 33.8 °F 39.1 °F
Humidity: 90% 76.6% 85%
Wind Speed: 13.4mph 0mph 6mph
Wind Gust: 28mph - -
Wind- - WNW
Pressure: 29.93 in 29.22 in -
Precipitation: 0.09 in    
Historical Graphs
 
 
Tabular Data for November 26, 2021
Time Temperature Dew Point Pressure Wind Wind Speed Wind Gust Humidity Rainfall Rate (Hourly) solar
00:09 38.3 °F 35.6 °F 29.93 in NNW 1.5 mph 4 mph 87% 0.00 in 0 W/m2
00:14 38.3 °F 35.6 °F 29.93 in NNW 2.1 mph 5 mph 87% 0.00 in 0 W/m2
00:19 38.4 °F 35.7 °F 29.92 in NNW 2.3 mph 5 mph 87% 0.00 in 0 W/m2
00:24 38.7 °F 36 °F 29.92 in NNW 3.1 mph 6 mph 87.2% 0.00 in 0 W/m2
00:29 38.7 °F 36.3 °F 29.91 in NNW 2.8 mph 5 mph 88% 0.00 in 0 W/m2
00:34 38.8 °F 36.5 °F 29.91 in NNW 3.3 mph 7 mph 88% 0.00 in 0 W/m2
00:39 38.9 °F 36.6 °F 29.91 in NNW 2.5 mph 7 mph 88% 0.00 in 0 W/m2
00:44 39 °F 36.7 °F 29.91 in NNW 2.1 mph 6 mph 88% 0.00 in 0 W/m2
00:49 39.2 °F 36.9 °F 29.90 in NNW 2.8 mph 5 mph 88% 0.00 in 0 W/m2
00:54 39.4 °F 37 °F 29.89 in NNW 2.8 mph 5 mph 88% 0.00 in 0 W/m2
00:59 39.6 °F 37.2 °F 29.89 in NNW 3.6 mph 6 mph 88% 0.00 in 0 W/m2
01:04 39.6 °F 37.2 °F 29.89 in NNW 2.5 mph 6 mph 88% 0.00 in 0 W/m2
01:08 39.6 °F 37.2 °F 29.88 in NNW 3 mph 6 mph 88% 0.00 in 0 W/m2
01:14 39.6 °F 37.2 °F 29.88 in NNW 3.6 mph 6 mph 88% 0.00 in 0 W/m2
01:19 39.6 °F 37.2 °F 29.87 in NNW 3.4 mph 7 mph 88% 0.00 in 0 W/m2
01:24 39.7 °F 37.4 °F 29.87 in NNW 3.2 mph 7 mph 88% 0.00 in 0 W/m2
01:29 39.7 °F 37.4 °F 29.86 in NNW 3.3 mph 6 mph 88% 0.00 in 0 W/m2
01:34 39.8 °F 37.5 °F 29.86 in NNW 1.9 mph 5 mph 88% 0.00 in 0 W/m2
01:39 39.9 °F 37.6 °F 29.86 in NNW 3.7 mph 8 mph 88% 0.00 in 0 W/m2
01:44 40.1 °F 37.7 °F 29.85 in NNW 4.3 mph 8 mph 88% 0.00 in 0 W/m2
01:49 40.3 °F 37.9 °F 29.85 in NNW 4.1 mph 8 mph 88% 0.00 in 0 W/m2
01:54 40.4 °F 37.8 °F 29.85 in NNW 4.1 mph 8 mph 87.2% 0.00 in 0 W/m2
01:59 40.5 °F 37.8 °F 29.85 in NNW 3.5 mph 6 mph 87% 0.00 in 0 W/m2
02:04 40.5 °F 37.8 °F 29.84 in NNW 3.4 mph 7 mph 87% 0.00 in 0 W/m2
02:09 40.5 °F 37.8 °F 29.83 in NNW 2.1 mph 5 mph 87% 0.00 in 0 W/m2
02:14 40.5 °F 37.8 °F 29.83 in NNW 3.2 mph 7 mph 87% 0.00 in 0 W/m2
02:19 40.5 °F 37.8 °F 29.83 in NNW 2.4 mph 7 mph 87% 0.00 in 0 W/m2
02:24 40.6 °F 37.9 °F 29.82 in NNW 3.2 mph 9 mph 87% 0.00 in 0 W/m2
02:29 40.7 °F 37.9 °F 29.82 in NW 3.3 mph 9 mph 86.6% 0.00 in 0 W/m2
02:34 40.8 °F 37.8 °F 29.81 in NW 4.9 mph 8 mph 86% 0.00 in 0 W/m2
02:39 41 °F 37.9 °F 29.80 in NW 3.9 mph 9 mph 86% 0.00 in 0 W/m2
02:44 41.3 °F 38.2 °F 29.80 in WNW 4.6 mph 10 mph 86% 0.00 in 0 W/m2
02:49 41.5 °F 38.5 °F 29.79 in WNW 5.3 mph 11 mph 85.8% 0.00 in 0 W/m2
02:54 41.7 °F 38.5 °F 29.79 in WNW 4.4 mph 11 mph 85% 0.00 in 0 W/m2
02:59 42 °F 38.7 °F 29.79 in WNW 4.4 mph 8 mph 85% 0.00 in 0 W/m2
03:04 42.1 °F 38.6 °F 29.78 in WNW 1.7 mph 5 mph 84.2% 0.00 in 0 W/m2
03:09 42.1 °F 38.5 °F 29.78 in WNW 0.6 mph 4 mph 84% 0.00 in 0 W/m2
03:14 41.9 °F 38.3 °F 29.77 in WNW 0.4 mph 4 mph 84% 0.00 in 0 W/m2
03:19 41.9 °F 38.3 °F 29.77 in Calm     84% 0.00 in 0 W/m2
03:24 41.9 °F 38.3 °F 29.76 in WNW 1 mph 4 mph 84% 0.00 in 0 W/m2
03:29 42 °F 38.7 °F 29.75 in WNW 1 mph 5 mph 84.8% 0.00 in 0 W/m2
03:34 42.1 °F 38.8 °F 29.74 in WNW 2.9 mph 6 mph 84.8% 0.00 in 0 W/m2
03:39 42.3 °F 39 °F 29.74 in WNW 3.7 mph 6 mph 85% 0.00 in 0 W/m2
03:44 42.4 °F 39.2 °F 29.73 in WNW 3.5 mph 7 mph 85% 0.00 in 0 W/m2
03:49 42.5 °F 39.3 °F 29.73 in WNW 2 mph 7 mph 85% 0.00 in 0 W/m2
03:54 42.6 °F 39.4 °F 29.73 in WNW 1.4 mph 4 mph 85% 0.00 in 0 W/m2
03:59 42.6 °F 39.4 °F 29.72 in Calm   4 mph 85% 0.00 in 0 W/m2
04:04 42.6 °F 39.4 °F 29.71 in WNW 3.3 mph 7 mph 85% 0.00 in 0 W/m2
04:09 42.7 °F 39.5 °F 29.71 in WNW 3.7 mph 9 mph 85% 0.00 in 0 W/m2
04:14 42.9 °F 39.6 °F 29.70 in West 2.9 mph 9 mph 85% 0.00 in 0 W/m2
04:19 42.8 °F 39.6 °F 29.70 in West 4.5 mph 10 mph 85% 0.00 in 0 W/m2
04:24 42.6 °F 39.4 °F 29.69 in SW 7 mph 12 mph 85% 0.00 in 0 W/m2
04:29 42.4 °F 39.2 °F 29.69 in SW 4.8 mph 10 mph 85% 0.00 in 0 W/m2
04:34 42.4 °F 39.4 °F 29.68 in WSW 5.4 mph 13 mph 85.8% 0.00 in 0 W/m2
04:39 42.4 °F 39.4 °F 29.67 in WSW 6.5 mph 13 mph 86% 0.00 in 0 W/m2
04:44 42.2 °F 39.1 °F 29.66 in WSW 6 mph 12 mph 86% 0.00 in 0 W/m2
04:49 42.1 °F 39.3 °F 29.66 in WSW 6.6 mph 10 mph 86.8% 0.00 in 0 W/m2
04:54 42.2 °F 39.5 °F 29.65 in WSW 5.3 mph 11 mph 87% 0.00 in 0 W/m2
04:59 42.3 °F 39.6 °F 29.65 in West 4.7 mph 11 mph 87% 0.00 in 0 W/m2
05:04 42.4 °F 39.7 °F 29.64 in West 4 mph 10 mph 87% 0.00 in 0 W/m2
05:09 42.4 °F 39.7 °F 29.64 in West 6.4 mph 13 mph 87% 0.00 in 0 W/m2
05:14 42.4 °F 39.9 °F 29.64 in West 5.8 mph 9 mph 87.6% 0.00 in 0 W/m2
05:19 42.3 °F 39.8 °F 29.63 in WSW 6.3 mph 13 mph 87.8% 0.00 in 0 W/m2
05:24 42.2 °F 39.8 °F 29.63 in West 5.2 mph 10 mph 88% 0.00 in 0 W/m2
05:29 42.1 °F 39.7 °F 29.62 in West 5.7 mph 10 mph 88% 0.00 in 0 W/m2
05:34 42.1 °F 39.7 °F 29.62 in West 3.6 mph 11 mph 88% 0.00 in 0 W/m2
05:39 42.3 °F 39.9 °F 29.62 in WNW 4.5 mph 9 mph 88% 0.00 in 0 W/m2
05:44 42.3 °F 39.9 °F 29.62 in West 3.9 mph 9 mph 88% 0.00 in 0 W/m2
05:49 42.4 °F 40.1 °F 29.61 in West 3.9 mph 7 mph 88% 0.00 in 0 W/m2
05:54 42.6 °F 40.5 °F 29.61 in West 3.8 mph 9 mph 88.8% 0.00 in 0 W/m2
05:59 42.8 °F 40.6 °F 29.60 in West 3.6 mph 9 mph 89% 0.00 in 0 W/m2
06:04 42.7 °F 40.6 °F 29.60 in West 3.6 mph 7 mph 89% 0.00 in 0 W/m2
06:09 42.7 °F 40.6 °F 29.59 in WSW 5.4 mph 8 mph 89% 0.00 in 0 W/m2
06:14 42.9 °F 40.7 °F 29.58 in WSW 3.2 mph 8 mph 89% 0.00 in 0 W/m2
06:19 43 °F 40.7 °F 29.58 in WSW 2.1 mph 6 mph 88.4% 0.00 in 0 W/m2
06:24 43.1 °F 40.7 °F 29.58 in WSW 2.2 mph 5 mph 88% 0.00 in 0 W/m2
06:29 43.2 °F 40.8 °F 29.57 in WSW 1.2 mph 3 mph 88% 0.00 in 0 W/m2
06:34 43.2 °F 40.8 °F 29.57 in WSW 0.4 mph 2 mph 88.2% 0.00 in 0 W/m2
06:39 43.2 °F 41 °F 29.57 in WSW 0.6 mph 2 mph 89% 0.00 in 0 W/m2
06:44 43.3 °F 41.1 °F 29.56 in WSW 2.2 mph 5 mph 89% 0.00 in 0 W/m2
06:49 43.7 °F 41.6 °F 29.55 in West 3.3 mph 10 mph 89% 0.00 in 0 W/m2
06:54 44.6 °F 42.4 °F 29.54 in WNW 5.2 mph 13 mph 89% 0.00 in 0 W/m2
06:59 45.2 °F 43.1 °F 29.54 in WNW 3.4 mph 9 mph 89% 0.00 in 0 W/m2
07:04 45.6 °F 43.3 °F 29.54 in WNW 8.7 mph 15 mph 88.6% 0.00 in 0 W/m2
07:09 46 °F 43.4 °F 29.54 in WNW 8 mph 12 mph 87.8% 0.00 in 0 W/m2
07:14 46 °F 43.3 °F 29.53 in West 5.3 mph 11 mph 87% 0.00 in 0 W/m2
07:19 46 °F 43.3 °F 29.53 in WNW 4.7 mph 10 mph 87% 0.00 in 0 W/m2
07:24 46 °F 43.1 °F 29.53 in WNW 5.8 mph 9 mph 86.4% 0.00 in 0 W/m2
07:29 46 °F 43 °F 29.52 in WNW 4.5 mph 11 mph 86% 0.00 in 0 W/m2
07:34 46 °F 43 °F 29.52 in WNW 8 mph 14 mph 86% 0.00 in 0 W/m2
07:39 46 °F 43 °F 29.52 in WNW 6.2 mph 12 mph 86% 0.00 in 0 W/m2
07:44 46 °F 42.9 °F 29.52 in WNW 7.4 mph 14 mph 86% 0.00 in 0 W/m2
07:49 46 °F 43.3 °F 29.52 in WNW 5.5 mph 14 mph 87% 0.00 in 0 W/m2
07:54 46 °F 43.3 °F 29.51 in WNW 8.4 mph 15 mph 87% 0.00 in 5 W/m2
07:59 46 °F 43.3 °F 29.51 in West 6.6 mph 15 mph 87% 0.00 in 7 W/m2
08:04 46.1 °F 43.4 °F 29.50 in WNW 7.4 mph 16 mph 87% 0.00 in 7 W/m2
08:09 46.2 °F 43.5 °F 29.50 in WNW 6.2 mph 16 mph 87% 0.00 in 7 W/m2
08:14 46.3 °F 43.6 °F 29.50 in WNW 8.3 mph 18 mph 87% 0.00 in 9 W/m2
08:19 46.4 °F 43.7 °F 29.49 in WNW 8.8 mph 17 mph 87% 0.00 in 18 W/m2
08:24 46.6 °F 43.9 °F 29.49 in WNW 11.9 mph 22 mph 87% 0.00 in 23 W/m2
08:29 46.8 °F 44.1 °F 29.49 in WNW 6.2 mph 22 mph 87% 0.00 in 14 W/m2
08:34 46.9 °F 44.1 °F 29.48 in WNW 10.6 mph 19 mph 86.8% 0.00 in 16 W/m2
08:39 47.1 °F 44.1 °F 29.48 in WNW 6.7 mph 16 mph 86.2% 0.00 in 25 W/m2
08:44 47.1 °F 44.1 °F 29.48 in WNW 10.8 mph 17 mph 86% 0.00 in 32 W/m2
08:49 47.4 °F 44.3 °F 29.47 in WNW 10.8 mph 17 mph 86% 0.00 in 21 W/m2
08:54 47.5 °F 44.4 °F 29.47 in WNW 7.6 mph 19 mph 86% 0.00 in 21 W/m2
08:59 47.5 °F 44.4 °F 29.47 in WNW 9.8 mph 19 mph 86% 0.00 in 28 W/m2
09:04 47.5 °F 44.4 °F 29.47 in WNW 10.3 mph 17 mph 86% 0.00 in 37 W/m2
09:09 47.7 °F 44.6 °F 29.47 in NW 9 mph 18 mph 86% 0.00 in 33 W/m2
09:14 47.9 °F 44.5 °F 29.47 in WNW 11.7 mph 22 mph 85.2% 0.00 in 62 W/m2
09:19 48.1 °F 44.7 °F 29.47 in WNW 9.8 mph 18 mph 85% 0.00 in 107 W/m2
09:24 48.5 °F 44.8 °F 29.46 in WNW 10.3 mph 21 mph 84.2% 0.00 in 128 W/m2
09:29 48.7 °F 44.9 °F 29.46 in West 8.4 mph 17 mph 84% 0.00 in 127 W/m2
09:34 48.8 °F 45.1 °F 29.46 in WNW 8.4 mph 19 mph 84% 0.00 in 181 W/m2
09:39 48.7 °F 45 °F 29.46 in WNW 9.6 mph 19 mph 84% 0.00 in 171 W/m2
09:44 48.6 °F 44.8 °F 29.46 in NW 7.2 mph 15 mph 84% 0.00 in 62 W/m2
09:49 48 °F 44.6 °F 29.47 in NNW 8.8 mph 16 mph 85% 0.05 in 30 W/m2
09:54 46.9 °F 43.9 °F 29.47 in WNW 11.8 mph 18 mph 86.2% 0.06 in 21 W/m2
09:59 45.9 °F 43.2 °F 29.47 in WNW 10.4 mph 19 mph 87% 0.06 in 30 W/m2
10:04 45.2 °F 42.6 °F 29.45 in WNW 9.4 mph 15 mph 87.4% 0.06 in 44 W/m2
10:09 44.9 °F 42.4 °F 29.46 in WNW 4.9 mph 13 mph 88% 0.06 in 37 W/m2
10:14 44.5 °F 42 °F 29.46 in WNW 6.7 mph 13 mph 88% 0.06 in 84 W/m2
10:19 44.5 °F 42.2 °F 29.46 in WNW 4.8 mph 14 mph 88.6% 0.06 in 171 W/m2
10:24 44.8 °F 42.6 °F 29.45 in NW 6 mph 14 mph 89% 0.06 in 216 W/m2
10:29 45.3 °F 43.3 °F 29.45 in NW 4 mph 10 mph 89.6% 0.06 in 232 W/m2
10:34 45.8 °F 43.7 °F 29.44 in NW 5 mph 10 mph 89.2% 0.06 in 149 W/m2
10:39 46.2 °F 44.4 °F 29.44 in WNW 5.6 mph 9 mph 90% 0.06 in 306 W/m2
10:44 46.8 °F 45 °F 29.44 in NW 6 mph 9 mph 90% 0.06 in 234 W/m2
10:49 46.9 °F 45 °F 29.44 in NW 4.1 mph 8 mph 90% 0.06 in 123 W/m2
10:54 47 °F 44.9 °F 29.43 in NW 4 mph 9 mph 89.4% 0.01 in 84 W/m2
10:59 46.9 °F 45 °F 29.42 in WNW 7.7 mph 12 mph 89.6% 0.00 in 185 W/m2
11:04 47.4 °F 45.2 °F 29.42 in NW 4.7 mph 9 mph 89% 0.00 in 264 W/m2
11:09 47.6 °F 45.4 °F 29.42 in WNW 4.5 mph 13 mph 89% 0.00 in 237 W/m2
11:14 47.6 °F 45.2 °F 29.41 in WNW 7.2 mph 11 mph 88.4% 0.00 in 178 W/m2
11:19 47.7 °F 45 °F 29.41 in WNW 6.8 mph 11 mph 87.5% 0.00 in 272 W/m2
11:24 48 °F 44.9 °F 29.41 in WNW 10.3 mph 17 mph 85.8% 0.00 in 250 W/m2
11:29 48.4 °F 44.5 °F 29.41 in WNW 7.8 mph 18 mph 83.6% 0.00 in 279 W/m2
11:34 48.6 °F 44.2 °F 29.41 in WNW 13.2 mph 22 mph 82% 0.00 in 243 W/m2
11:39 48.6 °F 43.7 °F 29.40 in WNW 10.4 mph 18 mph 80.6% 0.00 in 283 W/m2
11:44 48.6 °F 43.5 °F 29.40 in WNW 8.2 mph 18 mph 80% 0.00 in 243 W/m2
11:49 48.6 °F 43.5 °F 29.40 in WNW 8.7 mph 19 mph 80% 0.00 in 267 W/m2
11:54 48.6 °F 43.3 °F 29.40 in WNW 7.2 mph 19 mph 79.2% 0.00 in 185 W/m2
11:59 48.6 °F 43.4 °F 29.40 in WNW 8.6 mph 13 mph 79.6% 0.00 in 134 W/m2
12:04 48.4 °F 43.2 °F 29.39 in WNW 10.4 mph 17 mph 79.8% 0.00 in 139 W/m2
12:09 48.4 °F 42.9 °F 29.39 in NW 7 mph 15 mph 78.6% 0.00 in 148 W/m2
12:14 48.2 °F 42.4 °F 29.39 in NW 9.2 mph 22 mph 77.6% 0.00 in 90 W/m2
12:19 47.8 °F 41.8 °F 29.39 in NW 7.6 mph 14 mph 76.6% 0.00 in 137 W/m2
12:24 47.8 °F 41.8 °F 29.39 in NW 5.3 mph 14 mph 76.6% 0.00 in 104 W/m2
12:29 47.6 °F 42 °F 29.39 in WNW 7.4 mph 13 mph 77.8% 0.00 in 100 W/m2
12:34 47.3 °F 41.9 °F 29.39 in WNW 6.3 mph 13 mph 78.6% 0.00 in 132 W/m2
12:39 47.4 °F 42.2 °F 29.38 in WNW 8.6 mph 16 mph 79% 0.00 in 192 W/m2
12:44 47.5 °F 42.3 °F 29.38 in WNW 8.4 mph 14 mph 79% 0.00 in 107 W/m2
12:49 47.4 °F 42.2 °F 29.38 in WNW 8.7 mph 15 mph 79% 0.00 in 153 W/m2
12:54 47.6 °F 42.3 °F 29.38 in WNW 7 mph 13 mph 79% 0.00 in 197 W/m2
12:59 47.7 °F 42.3 °F 29.37 in WNW 6.2 mph 14 mph 78.8% 0.00 in 207 W/m2
13:04 47.9 °F 42.5 °F 29.37 in NW 7 mph 15 mph 79% 0.00 in 246 W/m2
13:09 47.7 °F 42.3 °F 29.38 in NNW 13.3 mph 28 mph 78.8% 0.00 in 120 W/m2
13:14 45.9 °F 40.7 °F 29.38 in NNW 8.2 mph 26 mph 79.2% 0.01 in 19 W/m2
13:19 44.6 °F 40.2 °F 29.37 in NW 7.4 mph 17 mph 81.8% 0.01 in 32 W/m2
13:24 44 °F 40.2 °F 29.37 in WNW 4 mph 14 mph 83.4% 0.01 in 53 W/m2
13:29 43.9 °F 40.5 °F 29.37 in NW 4.1 mph 9 mph 84.8% 0.01 in 267 W/m2
13:34 44.2 °F 41.1 °F 29.37 in WNW 5.6 mph 9 mph 85.6% 0.01 in 267 W/m2
13:39 44.4 °F 41.3 °F 29.37 in WNW 3.5 mph 6 mph 85.8% 0.01 in 125 W/m2
13:44 44.6 °F 41.4 °F 29.37 in West 4.8 mph 10 mph 85.8% 0.01 in 105 W/m2
13:49 44.6 °F 41.5 °F 29.36 in WSW 3.7 mph 9 mph 86% 0.01 in 76 W/m2
13:54 44.4 °F 41.3 °F 29.36 in West 5 mph 10 mph 85.8% 0.01 in 174 W/m2
13:59 44.7 °F 41.3 °F 29.35 in NW 1.7 mph 5 mph 85% 0.01 in 79 W/m2
14:04 44.9 °F 41.5 °F 29.35 in NW 1.1 mph 3 mph 85% 0.01 in 53 W/m2
14:09 45 °F 41.5 °F 29.36 in NNW 5.9 mph 16 mph 85% 0.02 in 26 W/m2
14:14 44.4 °F 41 °F 29.36 in NW 7.4 mph 16 mph 85% 0.02 in 44 W/m2
14:19 43.6 °F 40.4 °F 29.36 in NW 7 mph 14 mph 85% 0.02 in 40 W/m2
14:24 43.5 °F 40.3 °F 29.36 in NW 7.8 mph 14 mph 85.2% 0.02 in 39 W/m2
14:29 43.6 °F 40.6 °F 29.35 in NW 6.2 mph 16 mph 86% 0.02 in 46 W/m2
14:34 43.8 °F 40.5 °F 29.36 in WNW 7.4 mph 17 mph 85.2% 0.02 in 28 W/m2
14:39 43.5 °F 40.3 °F 29.36 in NW 11.4 mph 20 mph 85% 0.02 in 30 W/m2
14:44 43.3 °F 40.1 °F 29.35 in WNW 7.4 mph 17 mph 84.8% 0.02 in 30 W/m2
14:49 43.3 °F 40.1 °F 29.36 in NW 7.4 mph 17 mph 85% 0.02 in 44 W/m2
14:54 43.3 °F 40.1 °F 29.36 in WNW 8.4 mph 19 mph 85% 0.02 in 40 W/m2
14:59 43.3 °F 40.1 °F 29.36 in NW 8.8 mph 16 mph 85% 0.02 in 30 W/m2
15:04 43.3 °F 40.1 °F 29.36 in NW 5.6 mph 13 mph 85% 0.02 in 28 W/m2
15:09 43.1 °F 39.8 °F 29.36 in NW 8.6 mph 17 mph 85% 0.02 in 32 W/m2
15:14 43 °F 39.7 °F 29.36 in NW 7.8 mph 14 mph 85% 0.01 in 35 W/m2
15:19 43 °F 39.7 °F 29.36 in NW 6.8 mph 12 mph 85% 0.00 in 44 W/m2
15:24 42.8 °F 39.6 °F 29.36 in NW 5.2 mph 12 mph 85% 0.00 in 40 W/m2
15:29 42.6 °F 39.4 °F 29.36 in WNW 5.2 mph 10 mph 85% 0.00 in 23 W/m2
15:34 42.5 °F 39.3 °F 29.36 in WNW 4.4 mph 9 mph 85% 0.00 in 19 W/m2
15:39 42.4 °F 39.3 °F 29.36 in WNW 5.2 mph 8 mph 85.4% 0.00 in 18 W/m2
15:44 42.4 °F 39.4 °F 29.36 in WNW 3.3 mph 7 mph 86% 0.00 in 21 W/m2
15:49 42.3 °F 39.2 °F 29.36 in NW 4.4 mph 8 mph 86% 0.00 in 21 W/m2
15:54 42.3 °F 39.2 °F 29.36 in WNW 4.1 mph 9 mph 86% 0.00 in 11 W/m2
15:59 42.3 °F 39.2 °F 29.36 in WNW 3.2 mph 6 mph 86% 0.00 in 7 W/m2
16:04 42.3 °F 39 °F 29.36 in WNW 3.7 mph 7 mph 85% 0.00 in 7 W/m2
16:09 42.3 °F 39 °F 29.36 in NW 4 mph 6 mph 85% 0.00 in 5 W/m2
16:14 42.1 °F 38.7 °F 29.36 in NW 6.6 mph 12 mph 84.6% 0.00 in 0 W/m2
16:19 42.1 °F 38.5 °F 29.36 in NW 6.4 mph 12 mph 84% 0.00 in 0 W/m2
16:24 42.1 °F 38.3 °F 29.36 in WNW 7.4 mph 13 mph 83.6% 0.00 in 0 W/m2
16:29 42.1 °F 38.1 °F 29.36 in WNW 6.7 mph 15 mph 83% 0.00 in 0 W/m2
16:34 41.8 °F 37.8 °F 29.36 in WNW 7.8 mph 13 mph 83% 0.00 in 0 W/m2
16:39 41.6 °F 37.6 °F 29.36 in NW 8.6 mph 17 mph 82.4% 0.00 in 0 W/m2
16:44 41.5 °F 37.4 °F 29.37 in NW 5.3 mph 12 mph 82% 0.00 in 0 W/m2
16:49 41.4 °F 37.3 °F 29.36 in NW 4.3 mph 14 mph 82% 0.00 in 0 W/m2
16:54 41.4 °F 37.2 °F 29.36 in WNW 2.7 mph 12 mph 82% 0.00 in 0 W/m2
16:59 41.4 °F 37.2 °F 29.36 in WNW 6 mph 9 mph 82% 0.00 in 0 W/m2
17:04 41.4 °F 37.2 °F 29.36 in NW 5.6 mph 12 mph 82% 0.00 in 0 W/m2
17:09 41.5 °F 37.3 °F 29.37 in NW 7.1 mph 15 mph 82% 0.00 in 0 W/m2
17:14 41.5 °F 37.4 °F 29.37 in NW 6.4 mph 16 mph 82% 0.00 in 0 W/m2
17:19 41.7 °F 37.3 °F 29.37 in NNW 6.2 mph 16 mph 81.2% 0.00 in 0 W/m2
17:24 41.5 °F 37 °F 29.37 in NW 6.1 mph 14 mph 81% 0.00 in 0 W/m2
17:29 41.4 °F 36.9 °F 29.37 in NW 7 mph 13 mph 81% 0.00 in 0 W/m2
17:34 41 °F 36.5 °F 29.37 in WNW 5.9 mph 11 mph 81% 0.00 in 0 W/m2
17:39 40.6 °F 36.1 °F 29.37 in WNW 6.4 mph 12 mph 81% 0.00 in 0 W/m2
17:44 40.5 °F 36.3 °F 29.36 in WNW 4.5 mph 11 mph 82% 0.00 in 0 W/m2
17:49 40.3 °F 36.1 °F 29.36 in WNW 4.1 mph 9 mph 82% 0.00 in 0 W/m2
17:54 40.3 °F 36.5 °F 29.36 in WNW 5 mph 11 mph 83% 0.00 in 0 W/m2
17:59 40.3 °F 36.5 °F 29.36 in WNW 5 mph 9 mph 83% 0.00 in 0 W/m2
18:04 40 °F 36.2 °F 29.36 in WNW 5.2 mph 9 mph 83% 0.00 in 0 W/m2
18:09 39.9 °F 36.2 °F 29.36 in WNW 4.8 mph 10 mph 83.8% 0.00 in 0 W/m2
18:14 39.8 °F 36.2 °F 29.36 in WNW 4.4 mph 10 mph 84% 0.00 in 0 W/m2
18:19 39.7 °F 36.1 °F 29.36 in WNW 4 mph 9 mph 84% 0.00 in 0 W/m2
18:24 39.6 °F 35.8 °F 29.36 in NW 5.6 mph 11 mph 83.2% 0.00 in 0 W/m2
18:29 39.4 °F 35.6 °F 29.36 in WNW 5.6 mph 10 mph 83% 0.00 in 0 W/m2
18:34 39.3 °F 35.5 °F 29.35 in WNW 5.8 mph 9 mph 83% 0.00 in 0 W/m2
18:39 39 °F 35.3 °F 29.36 in WNW 4.3 mph 8 mph 83.4% 0.00 in 0 W/m2
18:44 39 °F 35.3 °F 29.35 in NW 4.9 mph 10 mph 83.6% 0.00 in 0 W/m2
18:49 39 °F 35.2 °F 29.36 in NW 6.6 mph 11 mph 83% 0.00 in 0 W/m2
18:54 39 °F 35.1 °F 29.35 in WNW 6.4 mph 12 mph 82.6% 0.00 in 0 W/m2
18:59 39.2 °F 35.1 °F 29.35 in WNW 6.8 mph 12 mph 82% 0.00 in 0 W/m2
19:04 39.4 °F 34.9 °F 29.35 in NW 6.7 mph 14 mph 81% 0.00 in 0 W/m2
19:09 39.4 °F 34.7 °F 29.35 in NW 4.7 mph 13 mph 80.4% 0.00 in 0 W/m2
19:14 39.4 °F 34.5 °F 29.35 in NW 5 mph 9 mph 80% 0.00 in 0 W/m2
19:19 39.4 °F 34.5 °F 29.35 in WNW 4.9 mph 10 mph 80% 0.00 in 0 W/m2
19:24 39 °F 34.3 °F 29.34 in WNW 6 mph 11 mph 80% 0.00 in 0 W/m2
19:29 39 °F 34.3 °F 29.34 in WNW 5.5 mph 10 mph 80.2% 0.00 in 0 W/m2
19:34 38.8 °F 34.3 °F 29.34 in WNW 7.4 mph 12 mph 81% 0.00 in 0 W/m2
19:39 38.8 °F 34.3 °F 29.34 in WNW 8.2 mph 14 mph 81% 0.00 in 0 W/m2
19:44 38.9 °F 34.3 °F 29.34 in WNW 5.6 mph 12 mph 80.4% 0.00 in 0 W/m2
19:49 38.8 °F 34.2 °F 29.34 in WNW 7.6 mph 12 mph 80% 0.00 in 0 W/m2
19:54 38.8 °F 34.2 °F 29.33 in WNW 9.9 mph 13 mph 80% 0.00 in 0 W/m2
19:59 38.8 °F 34 °F 29.32 in WNW 6.4 mph 15 mph 79.6% 0.00 in 0 W/m2
20:04 38.8 °F 33.8 °F 29.32 in WNW 7.9 mph 12 mph 79% 0.00 in 0 W/m2
20:09 38.7 °F 34 °F 29.32 in WNW 5.2 mph 12 mph 80% 0.00 in 0 W/m2
20:14 38.5 °F 33.8 °F 29.32 in WNW 5.5 mph 11 mph 80.4% 0.00 in 0 W/m2
20:19 38.3 °F 33.8 °F 29.31 in WNW 5.3 mph 12 mph 81% 0.00 in 0 W/m2
20:24 38.1 °F 34 °F 29.31 in WNW 7.5 mph 12 mph 82% 0.00 in 0 W/m2
20:29 38.1 °F 34.3 °F 29.31 in WNW 6.3 mph 13 mph 83% 0.00 in 0 W/m2
20:34 38.1 °F 34.3 °F 29.31 in NW 8.6 mph 16 mph 83% 0.00 in 0 W/m2
20:39 38.3 °F 34.5 °F 29.31 in WNW 8.6 mph 12 mph 83.4% 0.00 in 0 W/m2
20:44 38.4 °F 34.6 °F 29.31 in WNW 7 mph 15 mph 83% 0.00 in 0 W/m2
20:49 38.4 °F 34.6 °F 29.31 in WNW 4.6 mph 13 mph 83% 0.00 in 0 W/m2
20:54 38.3 °F 34.5 °F 29.31 in NW 5.2 mph 11 mph 83% 0.00 in 0 W/m2
20:59 38.3 °F 34.5 °F 29.31 in WNW 4.7 mph 10 mph 83% 0.00 in 0 W/m2
21:04 38.1 °F 34.3 °F 29.31 in WNW 6.4 mph 11 mph 83% 0.00 in 0 W/m2
21:09 38.2 °F 34.4 °F 29.31 in WNW 7 mph 11 mph 83% 0.00 in 0 W/m2
21:14 38 °F 34.3 °F 29.31 in WNW 7.4 mph 12 mph 83% 0.00 in 0 W/m2
21:19 37.9 °F 34.3 °F 29.30 in WNW 7 mph 13 mph 83.6% 0.00 in 0 W/m2
21:24 37.8 °F 34.2 °F 29.30 in WNW 8.8 mph 13 mph 84% 0.00 in 0 W/m2
21:29 37.8 °F 34.2 °F 29.30 in NW 6.6 mph 13 mph 84% 0.00 in 0 W/m2
21:34 37.9 °F 34.3 °F 29.30 in WNW 11.2 mph 16 mph 84% 0.00 in 0 W/m2
21:39 38.1 °F 34.5 °F 29.29 in WNW 7.8 mph 16 mph 83.8% 0.00 in 0 W/m2
21:44 38.4 °F 34.6 °F 29.29 in WNW 8.8 mph 15 mph 83% 0.00 in 0 W/m2
21:49 38.5 °F 34.7 °F 29.28 in WNW 8.4 mph 15 mph 83% 0.00 in 0 W/m2
21:54 38.5 °F 34.7 °F 29.28 in WNW 7 mph 14 mph 83% 0.00 in 0 W/m2
21:59 38.6 °F 34.7 °F 29.28 in WNW 8 mph 13 mph 82.6% 0.00 in 0 W/m2
22:04 38.7 °F 34.5 °F 29.28 in WNW 5.3 mph 10 mph 82% 0.00 in 0 W/m2
22:09 38.7 °F 34.5 °F 29.28 in WNW 6.8 mph 10 mph 82% 0.00 in 0 W/m2
22:14 38.7 °F 34.5 °F 29.27 in WNW 6.6 mph 11 mph 82% 0.00 in 0 W/m2
22:19 38.7 °F 34.5 °F 29.27 in WNW 6.9 mph 14 mph 82% 0.00 in 0 W/m2
22:24 38.7 °F 34.6 °F 29.27 in WNW 8 mph 12 mph 82% 0.00 in 0 W/m2
22:29 38.8 °F 34.7 °F 29.27 in WNW 5.7 mph 12 mph 82% 0.00 in 0 W/m2
22:34 38.9 °F 34.7 °F 29.27 in WNW 4.7 mph 13 mph 81.8% 0.00 in 0 W/m2
22:39 39.2 °F 34.7 °F 29.26 in WNW 11.2 mph 20 mph 81% 0.00 in 0 W/m2
22:44 39.7 °F 35.2 °F 29.26 in WNW 8 mph 20 mph 81% 0.00 in 0 W/m2
22:49 39.9 °F 35.2 °F 29.26 in WNW 9.6 mph 21 mph 80.4% 0.00 in 0 W/m2
22:54 40 °F 35.2 °F 29.26 in West 12.4 mph 21 mph 80% 0.00 in 0 W/m2
22:59 39.8 °F 35.3 °F 29.25 in WNW 9.4 mph 17 mph 81% 0.00 in 0 W/m2
23:04 39.7 °F 35.4 °F 29.25 in WNW 8.9 mph 15 mph 81.5% 0.00 in 0 W/m2
23:09 39.6 °F 35.5 °F 29.25 in WNW 7 mph 13 mph 82.2% 0.00 in 0 W/m2
23:14 39.6 °F 35.8 °F 29.24 in WNW 7.2 mph 15 mph 83% 0.00 in 0 W/m2
23:19 39.6 °F 35.8 °F 29.24 in NW 10.2 mph 18 mph 83.2% 0.00 in 0 W/m2
23:24 39.6 °F 36 °F 29.23 in WNW 8.6 mph 17 mph 84% 0.00 in 0 W/m2
23:29 39.6 °F 36 °F 29.23 in NW 6.2 mph 15 mph 84% 0.00 in 0 W/m2
23:34 39.7 °F 36.1 °F 29.23 in WNW 9 mph 18 mph 84% 0.00 in 0 W/m2
23:39 39.8 °F 36.2 °F 29.23 in NW 9 mph 15 mph 84% 0.00 in 0 W/m2
23:44 39.7 °F 36.1 °F 29.23 in WNW 9.6 mph 15 mph 84% 0.00 in 0 W/m2
23:49 39.8 °F 36.2 °F 29.23 in WNW 13.4 mph 18 mph 84% 0.00 in 0 W/m2
23:54 39.9 °F 36.3 °F 29.23 in NW 9.6 mph 19 mph 84% 0.00 in 0 W/m2
23:59 40.1 °F 36.3 °F 29.22 in WNW 9.8 mph 18 mph 83.2% 0.00 in 0 W/m2
Bath Spa Weather
Compliments of Weather Underground - 2 mb